Time;durP1;ratioP1;P1;durP2;ratioP2;P2;SDS_P1;SDS_P2;PMS_P1;PMS_P2;Temp;Humidity;BMP_temperature;BMP_pressure;BME280_temperature;BME280_humidity;BME280_pressure;Samples;Min_cycle;Max_cycle;Signal;HPM_P1;HPM_P2
2022/01/01 00:02:16;;;;;;;;;;;11.30;96.80;;;;;;4983499;28;19905;-67
2022/01/01 00:04:42;;;;;;;;;;;11.30;96.70;;;;;;4983813;28;19906;-67
2022/01/01 00:07:11;;;;;;;;;;;11.30;96.70;;;;;;4983969;28;20008;-67
2022/01/01 00:09:36;;;;;;;;;;;11.30;96.70;;;;;;4984020;28;19906;-67
2022/01/01 00:12:02;;;;;;;;;;;11.40;96.60;;;;;;4983930;28;19906;-67
2022/01/01 00:14:31;;;;;;;;;;;11.30;96.70;;;;;;4983917;28;19912;-70
2022/01/01 00:16:57;;;;;;;;;;;11.30;96.70;;;;;;4983839;28;19906;-68
2022/01/01 00:19:23;;;;;;;;;;;11.30;96.70;;;;;;4983993;28;19945;-68
2022/01/01 00:21:48;;;;;;;;;;;11.30;96.70;;;;;;4983772;28;19905;-68
2022/01/01 00:24:14;;;;;;;;;;;11.30;96.80;;;;;;4983707;28;20144;-68
2022/01/01 00:26:40;;;;;;;;;;;11.30;96.80;;;;;;4983650;28;19910;-68
2022/01/01 00:29:06;;;;;;;;;;;11.30;96.80;;;;;;4983839;28;20078;-68
2022/01/01 00:31:31;;;;;;;;;;;11.30;96.80;;;;;;4983735;28;19974;-68
2022/01/01 00:34:00;;;;;;;;;;;11.30;96.90;;;;;;4983874;28;20192;-68
2022/01/01 00:36:26;;;;;;;;;;;11.40;96.80;;;;;;4983212;28;19969;-68
2022/01/01 00:38:52;;;;;;;;;;;11.30;96.80;;;;;;4983727;28;19910;-68
2022/01/01 00:41:17;;;;;;;;;;;11.30;96.70;;;;;;4983734;28;19985;-68
2022/01/01 00:43:43;;;;;;;;;;;11.40;96.80;;;;;;4983685;28;19906;-68
2022/01/01 00:46:09;;;;;;;;;;;11.40;96.70;;;;;;4983320;28;19977;-68
2022/01/01 00:48:35;;;;;;;;;;;11.40;96.80;;;;;;4983532;28;19933;-68
2022/01/01 00:51:00;;;;;;;;;;;11.30;96.70;;;;;;4983506;28;19913;-68
2022/01/01 00:53:26;;;;;;;;;;;11.40;96.60;;;;;;4983591;28;19913;-68
2022/01/01 00:55:52;;;;;;;;;;;11.30;96.70;;;;;;4982350;28;20018;-69
2022/01/01 00:58:17;;;;;;;;;;;11.30;96.90;;;;;;4986860;28;19973;-69
2022/01/01 01:00:43;;;;;;;;;;;11.30;96.90;;;;;;4987254;28;20251;-69
2022/01/01 01:03:09;;;;;;;;;;;11.30;97.00;;;;;;4986759;28;19938;-69
2022/01/01 01:05:36;;;;;;;;;;;11.30;97.00;;;;;;4986828;28;19992;-69
2022/01/01 01:08:01;;;;;;;;;;;11.30;97.00;;;;;;4987345;28;19906;-69
2022/01/01 01:10:27;;;;;;;;;;;11.30;97.00;;;;;;4987187;28;19906;-69
2022/01/01 01:12:53;;;;;;;;;;;11.30;97.00;;;;;;4987154;28;19913;-69
2022/01/01 01:15:19;;;;;;;;;;;11.30;96.90;;;;;;4986907;28;19906;-69
2022/01/01 01:17:49;;;;;;;;;;;11.30;96.90;;;;;;4986912;28;19973;-69
2022/01/01 01:20:15;;;;;;;;;;;11.30;96.80;;;;;;4986997;28;19906;-69
2022/01/01 01:22:40;;;;;;;;;;;11.30;96.80;;;;;;4986874;28;19929;-69
2022/01/01 01:25:07;;;;;;;;;;;11.30;96.70;;;;;;4986532;28;19917;-69
2022/01/01 01:27:34;;;;;;;;;;;11.30;96.90;;;;;;4986820;28;19906;-69
2022/01/01 01:30:00;;;;;;;;;;;11.30;96.80;;;;;;4986565;28;19906;-69
2022/01/01 01:32:26;;;;;;;;;;;11.30;96.80;;;;;;4986613;28;19913;-69
2022/01/01 01:34:51;;;;;;;;;;;11.30;96.80;;;;;;4986286;28;19914;-69
2022/01/01 01:37:17;;;;;;;;;;;11.30;96.80;;;;;;5025398;23;19905;-68
2022/01/01 01:39:43;;;;;;;;;;;11.30;96.70;;;;;;5026056;28;19920;-69
2022/01/01 01:42:08;;;;;;;;;;;11.30;96.70;;;;;;5034800;28;20191;-68
2022/01/01 01:44:41;;;;;;;;;;;11.30;96.80;;;;;;5030490;28;19906;-68
2022/01/01 01:47:14;;;;;;;;;;;11.40;96.70;;;;;;5024087;28;19945;-68
2022/01/01 01:49:40;;;;;;;;;;;11.30;96.70;;;;;;5005613;28;20193;-68
2022/01/01 01:52:07;;;;;;;;;;;11.30;96.70;;;;;;5005497;28;19916;-68
2022/01/01 01:54:33;;;;;;;;;;;11.30;96.70;;;;;;5005158;28;19909;-70
2022/01/01 01:56:58;;;;;;;;;;;11.30;96.70;;;;;;5004657;28;20293;-69
2022/01/01 01:59:24;;;;;;;;;;;11.30;96.70;;;;;;5004590;28;19979;-69
2022/01/01 02:01:50;;;;;;;;;;;11.30;96.70;;;;;;5004594;28;19913;-69
2022/01/01 02:04:16;;;;;;;;;;;11.30;96.60;;;;;;5005432;28;19912;-69
2022/01/01 02:06:42;;;;;;;;;;;11.30;96.60;;;;;;5006333;28;19909;-69
2022/01/01 02:09:09;;;;;;;;;;;11.30;96.70;;;;;;4987255;28;19906;-69
2022/01/01 02:11:35;;;;;;;;;;;11.30;96.70;;;;;;5004545;28;20243;-69
2022/01/01 02:14:08;;;;;;;;;;;11.30;96.70;;;;;;5005317;28;19905;-69
2022/01/01 02:17:06;;;;;;;;;;;11.30;96.70;;;;;;5005282;28;19905;-69
2022/01/01 02:19:26;;;;;;;;;;;11.30;96.70;;;;;;5003968;28;19914;-69
2022/01/01 02:21:53;;;;;;;;;;;11.30;96.70;;;;;;5004280;28;19905;-69
2022/01/01 02:24:19;;;;;;;;;;;11.30;96.70;;;;;;5005027;28;19906;-69
2022/01/01 02:26:44;;;;;;;;;;;11.30;96.70;;;;;;5005049;28;19985;-69
2022/01/01 02:29:10;;;;;;;;;;;11.30;96.50;;;;;;5004882;28;19969;-70
2022/01/01 02:31:36;;;;;;;;;;;11.30;96.50;;;;;;5005091;28;19921;-69
2022/01/01 02:34:06;;;;;;;;;;;11.30;96.60;;;;;;5005192;28;20112;-69
2022/01/01 02:36:37;;;;;;;;;;;11.30;96.60;;;;;;5003821;28;20024;-69
2022/01/01 02:39:10;;;;;;;;;;;11.30;96.50;;;;;;5004807;28;19910;-67
2022/01/01 02:41:36;;;;;;;;;;;11.30;96.50;;;;;;5003851;28;20128;-67
2022/01/01 02:44:01;;;;;;;;;;;11.30;96.60;;;;;;5004808;28;19905;-67
2022/01/01 02:46:27;;;;;;;;;;;11.30;96.50;;;;;;5004511;28;19909;-67
2022/01/01 02:48:53;;;;;;;;;;;11.30;96.60;;;;;;5004661;28;19928;-67
2022/01/01 02:51:18;;;;;;;;;;;11.30;96.50;;;;;;5004741;28;19906;-67
2022/01/01 02:53:44;;;;;;;;;;;11.30;96.50;;;;;;5004666;28;19905;-67
2022/01/01 02:56:10;;;;;;;;;;;11.30;96.40;;;;;;5004340;28;20363;-67
2022/01/01 02:58:35;;;;;;;;;;;11.30;96.60;;;;;;5004468;28;19906;-67
2022/01/01 03:01:01;;;;;;;;;;;11.30;96.40;;;;;;5003673;28;19914;-67
2022/01/01 03:03:27;;;;;;;;;;;11.30;96.40;;;;;;5004486;28;19905;-67
2022/01/01 03:05:52;;;;;;;;;;;11.20;96.40;;;;;;5004179;28;19909;-66
2022/01/01 03:08:19;;;;;;;;;;;11.30;96.60;;;;;;5004269;28;19981;-67
2022/01/01 03:10:47;;;;;;;;;;;11.20;96.60;;;;;;5004344;28;19912;-67
2022/01/01 03:13:12;;;;;;;;;;;11.20;96.60;;;;;;5004203;28;20370;-67
2022/01/01 03:15:38;;;;;;;;;;;11.20;96.60;;;;;;5003995;28;19985;-67
2022/01/01 03:18:04;;;;;;;;;;;11.10;96.70;;;;;;5003141;28;20223;-67
2022/01/01 03:20:30;;;;;;;;;;;11.10;96.60;;;;;;5003839;28;19952;-67
2022/01/01 03:22:55;;;;;;;;;;;11.10;96.60;;;;;;5004194;28;19906;-67
2022/01/01 03:25:21;;;;;;;;;;;11.20;96.60;;;;;;5003752;28;19968;-67
2022/01/01 03:27:47;;;;;;;;;;;11.10;96.60;;;;;;5003930;28;19976;-68
2022/01/01 03:30:12;;;;;;;;;;;11.10;96.70;;;;;;5004041;28;19912;-67
2022/01/01 03:32:38;;;;;;;;;;;11.10;96.60;;;;;;5004130;28;19912;-67
2022/01/01 03:35:04;;;;;;;;;;;11.10;96.70;;;;;;5003652;28;19906;-66
2022/01/01 03:37:30;;;;;;;;;;;11.10;96.70;;;;;;5003745;28;19921;-66
2022/01/01 03:39:55;;;;;;;;;;;11.10;96.80;;;;;;5003861;28;20209;-67
2022/01/01 03:42:21;;;;;;;;;;;11.00;96.80;;;;;;5003799;28;19937;-66
2022/01/01 03:44:46;;;;;;;;;;;11.00;96.80;;;;;;5003411;28;20200;-67
2022/01/01 03:47:12;;;;;;;;;;;11.00;96.80;;;;;;5003705;28;19913;-67
2022/01/01 03:49:38;;;;;;;;;;;11.00;96.70;;;;;;5003652;28;19909;-66
2022/01/01 03:52:04;;;;;;;;;;;11.00;96.80;;;;;;5003731;28;20239;-67
2022/01/01 03:54:32;;;;;;;;;;;11.00;96.70;;;;;;5003369;28;19912;-67
2022/01/01 03:56:58;;;;;;;;;;;11.00;96.70;;;;;;5003561;28;19944;-68
2022/01/01 03:59:25;;;;;;;;;;;11.00;96.80;;;;;;5003856;28;19972;-67
2022/01/01 04:01:51;;;;;;;;;;;10.90;96.90;;;;;;5003562;28;19953;-67
2022/01/01 04:04:16;;;;;;;;;;;10.90;96.90;;;;;;5002759;28;19929;-66
2022/01/01 04:06:42;;;;;;;;;;;10.90;97.00;;;;;;5003511;28;19968;-67
2022/01/01 04:09:08;;;;;;;;;;;10.90;97.10;;;;;;5003435;28;19906;-67
2022/01/01 04:11:33;;;;;;;;;;;10.90;97.00;;;;;;5003449;28;20165;-68
2022/01/01 04:13:59;;;;;;;;;;;11.00;96.70;;;;;;5003413;28;19905;-67
2022/01/01 04:16:25;;;;;;;;;;;11.00;96.70;;;;;;5003209;28;19905;-66
2022/01/01 04:18:50;;;;;;;;;;;11.10;96.70;;;;;;5003397;28;19965;-67
2022/01/01 04:21:16;;;;;;;;;;;11.10;96.60;;;;;;5003395;28;19905;-67
2022/01/01 04:23:44;;;;;;;;;;;11.10;96.70;;;;;;5003351;28;20128;-67
2022/01/01 04:26:10;;;;;;;;;;;11.00;96.70;;;;;;5002965;28;19910;-67
2022/01/01 04:28:36;;;;;;;;;;;11.00;96.90;;;;;;5003432;28;19909;-67
2022/01/01 04:31:02;;;;;;;;;;;10.90;96.90;;;;;;5003413;28;19956;-67
2022/01/01 04:33:28;;;;;;;;;;;11.00;96.80;;;;;;5007276;28;19941;-67
2022/01/01 04:35:53;;;;;;;;;;;10.90;96.90;;;;;;5007017;28;19913;-67
2022/01/01 04:41:04;;;;;;;;;;;11.10;96.70;;;;;;5008308;28;19969;-67
2022/01/01 04:43:30;;;;;;;;;;;11.10;96.60;;;;;;5008386;28;20090;-67
2022/01/01 04:45:56;;;;;;;;;;;11.10;96.50;;;;;;5006758;28;19988;-67
2022/01/01 04:48:21;;;;;;;;;;;11.00;96.60;;;;;;5007023;28;19906;-67
2022/01/01 04:50:47;;;;;;;;;;;11.00;96.70;;;;;;5007029;28;19906;-67
2022/01/01 04:53:16;;;;;;;;;;;11.00;96.60;;;;;;5006970;28;19980;-67
2022/01/01 04:55:42;;;;;;;;;;;11.00;96.70;;;;;;5006657;28;19909;-66
2022/01/01 04:58:08;;;;;;;;;;;11.00;96.70;;;;;;5006959;28;19913;-67
2022/01/01 05:00:33;;;;;;;;;;;11.00;96.80;;;;;;5006864;28;19913;-67
2022/01/01 05:02:59;;;;;;;;;;;11.00;96.60;;;;;;5006321;28;19941;-67
2022/01/01 05:05:25;;;;;;;;;;;11.00;96.60;;;;;;5006321;28;19909;-66
2022/01/01 05:07:50;;;;;;;;;;;11.00;96.50;;;;;;5006569;28;19937;-67
2022/01/01 05:10:17;;;;;;;;;;;10.90;96.70;;;;;;5006528;28;19913;-67
2022/01/01 05:12:42;;;;;;;;;;;10.90;96.80;;;;;;5006537;28;19906;-67
2022/01/01 05:15:08;;;;;;;;;;;10.90;97.00;;;;;;5006319;28;20104;-67
2022/01/01 05:17:34;;;;;;;;;;;10.80;97.00;;;;;;5006510;28;19906;-67
2022/01/01 05:20:00;;;;;;;;;;;10.80;97.00;;;;;;5006316;28;19968;-67
2022/01/01 05:22:26;;;;;;;;;;;10.90;96.90;;;;;;5006482;28;19920;-66
2022/01/01 05:24:56;;;;;;;;;;;10.90;97.00;;;;;;5005978;28;20009;-67
2022/01/01 05:27:22;;;;;;;;;;;10.90;96.80;;;;;;5006329;28;20248;-67
2022/01/01 05:29:48;;;;;;;;;;;10.90;96.90;;;;;;5006312;28;19911;-66
2022/01/01 05:32:13;;;;;;;;;;;10.80;96.90;;;;;;5006196;28;19905;-65
2022/01/01 05:34:39;;;;;;;;;;;10.90;96.90;;;;;;5005839;28;19937;-67
2022/01/01 05:37:05;;;;;;;;;;;10.90;96.90;;;;;;5005889;28;19906;-67
2022/01/01 05:39:31;;;;;;;;;;;10.80;96.90;;;;;;5006202;28;20316;-67
2022/01/01 05:41:57;;;;;;;;;;;10.80;96.90;;;;;;5004482;28;19906;-68
2022/01/01 05:44:22;;;;;;;;;;;10.80;97.10;;;;;;5005476;28;19912;-67
2022/01/01 05:46:50;;;;;;;;;;;10.70;97.10;;;;;;5005907;28;19909;-67
2022/01/01 05:49:16;;;;;;;;;;;10.70;97.10;;;;;;5005681;28;20118;-66
2022/01/01 05:51:41;;;;;;;;;;;10.70;97.10;;;;;;5005973;28;19905;-67
2022/01/01 05:54:07;;;;;;;;;;;10.70;97.20;;;;;;5005755;28;19913;-67
2022/01/01 05:56:33;;;;;;;;;;;10.70;97.20;;;;;;5005688;28;19912;-67
2022/01/01 05:58:58;;;;;;;;;;;10.70;97.20;;;;;;5005702;28;19910;-67
2022/01/01 06:01:25;;;;;;;;;;;10.70;97.30;;;;;;5005616;28;19924;-67
2022/01/01 06:03:51;;;;;;;;;;;10.60;97.40;;;;;;5005079;28;19969;-67
2022/01/01 06:06:17;;;;;;;;;;;10.60;97.50;;;;;;5005324;28;19917;-66
2022/01/01 06:08:42;;;;;;;;;;;10.60;97.40;;;;;;5005550;28;19944;-66
2022/01/01 06:11:08;;;;;;;;;;;10.60;97.40;;;;;;5005456;28;20248;-67
2022/01/01 06:13:34;;;;;;;;;;;10.60;97.30;;;;;;5005525;28;19928;-67
2022/01/01 06:15:59;;;;;;;;;;;10.70;97.10;;;;;;5005164;28;20016;-66
2022/01/01 06:18:25;;;;;;;;;;;10.70;96.90;;;;;;5005249;28;19917;-67
2022/01/01 06:20:50;;;;;;;;;;;10.70;97.00;;;;;;5005296;28;19906;-66
2022/01/01 06:23:16;;;;;;;;;;;10.70;96.90;;;;;;5005321;28;19905;-67
2022/01/01 06:25:42;;;;;;;;;;;10.70;96.90;;;;;;5004872;28;19977;-67
2022/01/01 06:28:08;;;;;;;;;;;10.70;97.20;;;;;;5005209;28;19910;-67
2022/01/01 06:30:33;;;;;;;;;;;10.70;97.00;;;;;;5005236;28;19913;-67
2022/01/01 06:33:11;;;;;;;;;;;10.70;97.10;;;;;;5005055;28;20208;-66
2022/01/01 06:35:40;;;;;;;;;;;10.70;97.10;;;;;;5004898;28;19928;-67
2022/01/01 06:38:05;;;;;;;;;;;10.60;97.20;;;;;;5004957;28;19918;-67
2022/01/01 06:40:31;;;;;;;;;;;10.60;97.30;;;;;;5004962;28;19910;-67
2022/01/01 06:42:57;;;;;;;;;;;10.60;97.50;;;;;;5004939;28;20325;-67
2022/01/01 06:45:23;;;;;;;;;;;10.50;97.60;;;;;;5004428;28;19909;-67
2022/01/01 06:47:48;;;;;;;;;;;10.50;97.60;;;;;;5004692;28;19920;-67
2022/01/01 06:50:14;;;;;;;;;;;10.50;97.70;;;;;;5004681;28;20136;-66
2022/01/01 06:52:44;;;;;;;;;;;10.60;97.80;;;;;;5004705;28;19972;-66
2022/01/01 06:55:10;;;;;;;;;;;10.60;97.30;;;;;;5003780;28;19913;-73
2022/01/01 06:57:37;;;;;;;;;;;10.60;97.40;;;;;;5004594;28;19905;-65
2022/01/01 07:00:03;;;;;;;;;;;10.60;97.40;;;;;;5003470;28;20112;-66
2022/01/01 07:02:29;;;;;;;;;;;10.60;97.40;;;;;;5004685;28;19909;-65
2022/01/01 07:04:55;;;;;;;;;;;10.50;97.50;;;;;;5004272;28;19913;-66
2022/01/01 07:07:20;;;;;;;;;;;10.50;97.50;;;;;;5004359;28;20163;-65
2022/01/01 07:09:46;;;;;;;;;;;10.50;97.60;;;;;;5004359;28;19910;-66
2022/01/01 07:12:12;;;;;;;;;;;10.50;97.80;;;;;;5004246;28;19906;-66
2022/01/01 07:14:37;;;;;;;;;;;10.50;97.70;;;;;;5003966;28;20105;-66
2022/01/01 07:17:03;;;;;;;;;;;10.50;97.50;;;;;;5004206;28;19973;-66
2022/01/01 07:19:29;;;;;;;;;;;10.50;97.30;;;;;;5003106;28;19953;-65
2022/01/01 07:21:59;;;;;;;;;;;10.50;97.50;;;;;;5004149;28;19905;-66
2022/01/01 07:24:26;;;;;;;;;;;10.50;97.40;;;;;;5003822;28;20193;-66
2022/01/01 07:26:52;;;;;;;;;;;10.50;97.30;;;;;;5002946;28;20223;-66
2022/01/01 07:29:17;;;;;;;;;;;10.50;97.30;;;;;;5004047;28;19906;-65
2022/01/01 07:31:43;;;;;;;;;;;10.60;97.20;;;;;;5004015;28;20113;-64
2022/01/01 07:34:09;;;;;;;;;;;10.60;97.20;;;;;;5002683;28;19913;-66
2022/01/01 07:36:34;;;;;;;;;;;10.60;97.20;;;;;;5003659;28;19906;-65
2022/01/01 07:39:00;;;;;;;;;;;10.60;97.20;;;;;;5003711;28;20179;-65
2022/01/01 07:41:26;;;;;;;;;;;10.70;97.10;;;;;;5003872;28;19906;-65
2022/01/01 07:43:51;;;;;;;;;;;10.70;97.00;;;;;;5008165;23;19957;-68
2022/01/01 07:46:17;;;;;;;;;;;10.70;96.90;;;;;;4980973;28;19910;-67
2022/01/01 07:48:43;;;;;;;;;;;10.80;96.80;;;;;;4975749;28;20283;-72
2022/01/01 07:51:08;;;;;;;;;;;10.80;96.70;;;;;;4983482;28;19957;-72
2022/01/01 07:53:34;;;;;;;;;;;10.70;96.80;;;;;;4984035;28;20221;-72
2022/01/01 07:56:00;;;;;;;;;;;10.80;96.80;;;;;;4983943;28;19944;-72
2022/01/01 07:58:26;;;;;;;;;;;10.80;96.70;;;;;;4983821;28;19906;-72
2022/01/01 08:00:51;;;;;;;;;;;10.80;96.70;;;;;;4984220;28;20144;-68
2022/01/01 08:03:17;;;;;;;;;;;10.80;96.70;;;;;;4984010;28;19906;-68
2022/01/01 08:05:43;;;;;;;;;;;10.80;96.60;;;;;;4983700;28;19910;-68
2022/01/01 08:08:08;;;;;;;;;;;10.70;96.80;;;;;;4984113;28;19906;-67
2022/01/01 08:10:37;;;;;;;;;;;10.70;96.80;;;;;;4983825;28;19921;-67
2022/01/01 08:13:04;;;;;;;;;;;10.80;96.80;;;;;;4983556;28;20216;-66
2022/01/01 08:15:30;;;;;;;;;;;10.70;96.80;;;;;;4982518;28;19906;-65
2022/01/01 08:17:55;;;;;;;;;;;10.70;96.90;;;;;;4982518;28;20100;-75
2022/01/01 08:20:22;;;;;;;;;;;10.80;96.80;;;;;;4982524;28;19906;-73
2022/01/01 08:22:47;;;;;;;;;;;10.80;96.80;;;;;;4983914;28;19906;-73
2022/01/01 08:25:14;;;;;;;;;;;10.70;96.90;;;;;;4982222;28;19913;-74
2022/01/01 08:27:40;;;;;;;;;;;10.80;96.90;;;;;;4983793;28;19928;-73
2022/01/01 08:30:06;;;;;;;;;;;10.80;96.70;;;;;;4983683;28;19906;-74
2022/01/01 08:32:32;;;;;;;;;;;10.90;96.50;;;;;;4983705;28;20104;-73
2022/01/01 08:34:58;;;;;;;;;;;10.90;96.40;;;;;;4983562;28;19909;-74
2022/01/01 08:37:23;;;;;;;;;;;10.90;96.30;;;;;;4983070;28;19906;-68
2022/01/01 08:39:49;;;;;;;;;;;10.90;96.40;;;;;;4983698;28;19906;-67
2022/01/01 08:42:15;;;;;;;;;;;10.90;96.30;;;;;;4981141;28;20155;-66
2022/01/01 08:44:40;;;;;;;;;;;10.90;96.40;;;;;;4982010;28;19909;-67
2022/01/01 08:47:06;;;;;;;;;;;10.90;96.30;;;;;;4982697;28;19910;-67
2022/01/01 08:49:32;;;;;;;;;;;10.90;96.50;;;;;;4983572;28;20006;-67
2022/01/01 08:51:58;;;;;;;;;;;10.90;96.50;;;;;;4983905;28;19909;-67
2022/01/01 08:54:24;;;;;;;;;;;10.90;96.40;;;;;;4982267;28;19949;-68
2022/01/01 08:56:50;;;;;;;;;;;11.00;96.20;;;;;;4983654;28;20201;-68
2022/01/01 08:59:16;;;;;;;;;;;11.00;96.00;;;;;;4981111;28;19906;-69
2022/01/01 09:01:41;;;;;;;;;;;11.00;96.00;;;;;;4974133;28;20110;-68
2022/01/01 09:04:07;;;;;;;;;;;11.00;96.30;;;;;;4975106;28;19910;-70
2022/01/01 09:06:33;;;;;;;;;;;11.10;96.00;;;;;;4972724;28;20236;-68
2022/01/01 09:08:59;;;;;;;;;;;11.20;95.90;;;;;;4974615;28;19914;-68
2022/01/01 09:11:25;;;;;;;;;;;11.20;95.70;;;;;;4979188;28;20106;-68
2022/01/01 09:13:51;;;;;;;;;;;11.20;95.50;;;;;;4983167;28;19980;-67
2022/01/01 09:16:17;;;;;;;;;;;11.20;95.50;;;;;;4983239;28;19929;-67
2022/01/01 09:18:44;;;;;;;;;;;11.20;95.70;;;;;;4978232;28;20267;-67
2022/01/01 09:21:09;;;;;;;;;;;11.20;95.60;;;;;;4966467;29;19981;-67
2022/01/01 09:23:35;;;;;;;;;;;11.30;95.60;;;;;;4967583;28;20082;-68
2022/01/01 09:26:01;;;;;;;;;;;11.30;95.50;;;;;;4966916;28;19926;-68
2022/01/01 09:28:28;;;;;;;;;;;11.40;95.10;;;;;;4967146;28;19906;-68
2022/01/01 09:30:54;;;;;;;;;;;11.40;95.10;;;;;;4966372;29;19906;-68
2022/01/01 09:33:20;;;;;;;;;;;11.40;95.20;;;;;;4966198;28;19907;-68
2022/01/01 09:35:46;;;;;;;;;;;11.40;95.10;;;;;;4967179;28;19921;-68
2022/01/01 09:38:11;;;;;;;;;;;11.40;95.00;;;;;;4966857;28;19952;-68
2022/01/01 09:40:37;;;;;;;;;;;11.40;95.40;;;;;;4967605;28;20170;-78
2022/01/01 09:43:03;;;;;;;;;;;11.40;95.00;;;;;;4967114;28;19910;-79
2022/01/01 09:45:29;;;;;;;;;;;11.50;95.00;;;;;;4950456;28;20201;-78
2022/01/01 09:47:55;;;;;;;;;;;11.50;95.00;;;;;;4968024;28;19917;-79
2022/01/01 09:50:21;;;;;;;;;;;11.50;95.00;;;;;;4966691;29;20157;-74
2022/01/01 09:52:46;;;;;;;;;;;11.60;95.00;;;;;;4967058;28;19912;-75
2022/01/01 09:55:12;;;;;;;;;;;11.60;94.90;;;;;;4966859;28;20213;-74
2022/01/01 09:57:38;;;;;;;;;;;11.70;94.80;;;;;;4965247;28;19910;-71
2022/01/01 10:00:04;;;;;;;;;;;11.70;94.80;;;;;;4966974;28;19910;-68
2022/01/01 10:02:31;;;;;;;;;;;11.70;94.70;;;;;;4949237;29;19938;-69
2022/01/01 10:04:56;;;;;;;;;;;11.80;94.70;;;;;;4970934;28;19911;-68
2022/01/01 10:07:26;;;;;;;;;;;11.80;94.40;;;;;;4949188;29;20126;-68
2022/01/01 10:09:52;;;;;;;;;;;11.80;94.30;;;;;;4966617;28;20212;-68
2022/01/01 10:12:18;;;;;;;;;;;11.90;94.30;;;;;;4966023;29;19930;-69
2022/01/01 10:14:45;;;;;;;;;;;11.90;94.20;;;;;;4966352;28;19917;-69
2022/01/01 10:17:18;;;;;;;;;;;11.90;94.20;;;;;;4966504;29;19930;-76
2022/01/01 10:19:44;;;;;;;;;;;11.90;94.20;;;;;;4976576;28;19910;-70
2022/01/01 10:22:14;;;;;;;;;;;12.00;94.00;;;;;;4968306;28;19907;-70
2022/01/01 10:27:42;;;;;;;;;;;12.00;93.70;;;;;;4980940;28;19907;-69
2022/01/01 10:27:46;;;;;;;;;;;12.00;93.40;;;;;;4966329;28;19917;-69
2022/01/01 10:30:34;;;;;;;;;;;12.00;93.60;;;;;;4965171;28;19929;-76
2022/01/01 10:33:18;;;;;;;;;;;12.00;93.60;;;;;;4966176;28;19906;-69
2022/01/01 10:35:52;;;;;;;;;;;12.10;93.40;;;;;;4983883;28;19914;-63
2022/01/01 10:38:22;;;;;;;;;;;12.10;93.70;;;;;;4985410;28;19906;-63
2022/01/01 10:40:48;;;;;;;;;;;12.20;93.50;;;;;;4985110;28;19906;-63
2022/01/01 10:43:15;;;;;;;;;;;12.20;93.40;;;;;;4983824;28;20205;-69
2022/01/01 10:45:42;;;;;;;;;;;12.20;93.30;;;;;;4984878;28;19909;-67
2022/01/01 10:51:07;;;;;;;;;;;12.30;93.20;;;;;;4972740;28;19910;-68
2022/01/01 10:53:34;;;;;;;;;;;12.20;93.10;;;;;;4984749;28;19906;-68
2022/01/01 10:56:01;;;;;;;;;;;12.30;92.90;;;;;;4984864;28;19982;-68
2022/01/01 10:58:35;;;;;;;;;;;12.30;93.00;;;;;;4984879;28;19914;-68
2022/01/01 11:01:02;;;;;;;;;;;12.30;92.90;;;;;;4985112;28;19976;-68
2022/01/01 11:03:28;;;;;;;;;;;12.40;92.90;;;;;;4985393;28;19969;-68
2022/01/01 11:06:08;;;;;;;;;;;12.40;92.80;;;;;;4983895;28;19989;-68
2022/01/01 11:08:34;;;;;;;;;;;12.40;92.70;;;;;;4984682;28;19906;-68
2022/01/01 11:11:00;;;;;;;;;;;12.50;92.60;;;;;;4984781;28;19941;-68
2022/01/01 11:13:26;;;;;;;;;;;12.50;92.50;;;;;;4983828;28;19906;-68
2022/01/01 11:15:51;;;;;;;;;;;12.50;92.70;;;;;;4984319;28;20325;-68
2022/01/01 11:18:17;;;;;;;;;;;12.50;92.70;;;;;;4984648;28;19906;-68
2022/01/01 11:20:43;;;;;;;;;;;12.50;92.70;;;;;;4972037;28;20101;-69
2022/01/01 11:23:10;;;;;;;;;;;12.50;92.70;;;;;;4981858;28;19906;-70
2022/01/01 11:25:37;;;;;;;;;;;12.60;92.70;;;;;;4984048;28;19949;-69
2022/01/01 11:28:04;;;;;;;;;;;12.60;92.70;;;;;;4983498;28;19948;-72
2022/01/01 11:30:30;;;;;;;;;;;12.60;92.60;;;;;;4966565;28;19912;-71
2022/01/01 11:33:08;;;;;;;;;;;12.70;92.60;;;;;;4982765;28;19930;-72
2022/01/01 11:35:45;;;;;;;;;;;12.70;92.70;;;;;;4966916;28;19906;-71
2022/01/01 11:38:11;;;;;;;;;;;12.70;92.50;;;;;;4982746;28;19965;-72
2022/01/01 11:41:08;;;;;;;;;;;12.80;92.40;;;;;;4982532;28;19906;-71
2022/01/01 11:43:46;;;;;;;;;;;12.80;92.50;;;;;;4983379;28;19932;-70
2022/01/01 11:46:20;;;;;;;;;;;12.80;92.30;;;;;;4983068;28;19918;-71
2022/01/01 11:48:52;;;;;;;;;;;12.90;92.00;;;;;;4983772;28;19952;-71
2022/01/01 11:51:20;;;;;;;;;;;12.90;92.10;;;;;;4975352;28;20284;-72
2022/01/01 11:54:05;;;;;;;;;;;12.90;92.20;;;;;;4975413;28;19910;-74
2022/01/01 11:56:46;;;;;;;;;;;12.90;92.00;;;;;;4976622;28;20009;-73
2022/01/01 11:59:25;;;;;;;;;;;13.00;91.70;;;;;;4967998;28;19942;-76
2022/01/01 12:01:56;;;;;;;;;;;13.00;91.50;;;;;;4983012;28;20197;-77
2022/01/01 12:04:36;;;;;;;;;;;12.90;91.80;;;;;;4982735;28;20243;-70
2022/01/01 12:07:20;;;;;;;;;;;13.00;91.50;;;;;;4985621;28;19933;-74
2022/01/01 12:09:58;;;;;;;;;;;13.00;91.50;;;;;;4982940;28;19910;-75
2022/01/01 12:12:45;;;;;;;;;;;13.00;91.50;;;;;;4984576;28;19906;-76
2022/01/01 12:15:37;;;;;;;;;;;13.00;91.10;;;;;;4982244;28;19921;-76
2022/01/01 12:18:10;;;;;;;;;;;13.10;91.10;;;;;;4983383;28;19940;-76
2022/01/01 12:21:02;;;;;;;;;;;13.00;91.20;;;;;;4982562;28;19906;-78
2022/01/01 12:23:36;;;;;;;;;;;13.10;90.70;;;;;;4969220;28;19910;-69
2022/01/01 12:26:09;;;;;;;;;;;13.20;90.50;;;;;;4964894;29;20090;-69
2022/01/01 12:28:36;;;;;;;;;;;13.20;90.50;;;;;;4963970;29;19910;-79
2022/01/01 12:31:25;;;;;;;;;;;13.20;90.70;;;;;;4978323;28;19906;-71
2022/01/01 12:33:52;;;;;;;;;;;13.20;90.10;;;;;;4977030;28;20301;-72
2022/01/01 12:36:22;;;;;;;;;;;13.20;89.40;;;;;;4982984;28;19913;-74
2022/01/01 12:38:52;;;;;;;;;;;13.20;89.60;;;;;;4982122;28;19913;-74
2022/01/01 12:41:29;;;;;;;;;;;13.20;89.70;;;;;;5014589;28;19913;-75
2022/01/01 12:43:59;;;;;;;;;;;13.20;89.30;;;;;;5011832;28;19910;-76
2022/01/01 12:46:26;;;;;;;;;;;13.30;89.20;;;;;;4982495;28;19949;-77
2022/01/01 12:48:59;;;;;;;;;;;13.40;88.60;;;;;;4983018;28;19906;-77
2022/01/01 12:51:26;;;;;;;;;;;13.60;88.00;;;;;;4979337;28;19906;-77
2022/01/01 12:53:54;;;;;;;;;;;13.70;86.60;;;;;;4971306;28;19906;-70
2022/01/01 12:56:19;;;;;;;;;;;13.90;84.40;;;;;;4966411;28;19906;-69
2022/01/01 12:58:50;;;;;;;;;;;14.00;83.20;;;;;;4967710;28;19906;-77
2022/01/01 13:01:26;;;;;;;;;;;14.00;83.60;;;;;;4966170;28;19905;-70
2022/01/01 13:04:11;;;;;;;;;;;14.10;82.30;;;;;;4987081;28;19905;-71
2022/01/01 13:06:41;;;;;;;;;;;14.10;82.10;;;;;;4986338;28;20117;-67
2022/01/01 13:09:08;;;;;;;;;;;14.00;82.90;;;;;;4986701;28;19906;-70
2022/01/01 13:11:34;;;;;;;;;;;13.90;82.90;;;;;;4985023;28;19941;-69
2022/01/01 13:14:00;;;;;;;;;;;13.80;83.50;;;;;;4985736;28;19997;-69
2022/01/01 13:16:26;;;;;;;;;;;13.70;83.40;;;;;;4986564;28;20218;-69
2022/01/01 13:18:52;;;;;;;;;;;13.70;83.10;;;;;;4985731;28;19941;-69
2022/01/01 13:21:19;;;;;;;;;;;13.60;82.60;;;;;;4986471;28;19913;-69
2022/01/01 13:23:44;;;;;;;;;;;13.60;82.30;;;;;;4978536;28;19910;-68
2022/01/01 13:26:10;;;;;;;;;;;13.50;82.30;;;;;;4970167;28;19961;-69
2022/01/01 13:28:36;;;;;;;;;;;13.40;82.90;;;;;;4978825;28;19969;-70
2022/01/01 13:31:03;;;;;;;;;;;13.40;81.90;;;;;;4981132;28;19922;-69
2022/01/01 13:33:29;;;;;;;;;;;13.30;81.20;;;;;;5017973;28;19973;-70
2022/01/01 13:35:57;;;;;;;;;;;13.30;81.80;;;;;;5018106;28;20106;-69
2022/01/01 13:38:23;;;;;;;;;;;13.30;81.90;;;;;;4986605;28;19984;-70
2022/01/01 13:40:51;;;;;;;;;;;13.40;81.50;;;;;;4986674;28;20224;-70
2022/01/01 13:43:16;;;;;;;;;;;13.40;81.40;;;;;;4986116;28;19914;-72
2022/01/01 13:45:42;;;;;;;;;;;13.50;80.60;;;;;;5018027;28;20200;-73
2022/01/01 13:48:09;;;;;;;;;;;13.50;80.70;;;;;;4986147;28;19921;-74
2022/01/01 13:50:48;;;;;;;;;;;13.40;80.40;;;;;;5003092;28;19948;-74
2022/01/01 13:53:14;;;;;;;;;;;13.40;81.20;;;;;;4980039;28;19977;-73
2022/01/01 13:55:53;;;;;;;;;;;13.30;81.30;;;;;;4981670;28;19907;-73
2022/01/01 13:58:19;;;;;;;;;;;13.30;81.80;;;;;;4975012;28;20870;-72
2022/01/01 14:00:55;;;;;;;;;;;13.30;82.20;;;;;;4985466;28;19949;-74
2022/01/01 14:03:22;;;;;;;;;;;13.20;80.70;;;;;;4984461;28;19914;-75
2022/01/01 14:05:48;;;;;;;;;;;13.10;82.30;;;;;;4971488;28;19918;-78
2022/01/01 14:08:15;;;;;;;;;;;13.20;82.60;;;;;;5015372;28;19907;-78
2022/01/01 14:10:41;;;;;;;;;;;13.20;83.60;;;;;;4957087;28;19934;-69
2022/01/01 14:13:06;;;;;;;;;;;13.10;85.10;;;;;;4985925;28;19952;-71
2022/01/01 14:15:34;;;;;;;;;;;13.10;85.70;;;;;;4985762;28;20245;-71
2022/01/01 14:18:09;;;;;;;;;;;13.20;85.10;;;;;;4985533;28;19941;-73
2022/01/01 14:20:52;;;;;;;;;;;13.20;85.20;;;;;;4985787;28;19906;-75
2022/01/01 14:23:36;;;;;;;;;;;13.10;85.30;;;;;;4979998;28;20048;-76
2022/01/01 14:26:16;;;;;;;;;;;13.00;85.10;;;;;;4977366;28;19910;-72